EFMA

Mariehamn Airport

Finland
TAF EFMA 110831Z 1109/1118 03009KT 9999 BKN013 TEMPO 1109/1118 BKN015
Issued Valid From Valid To
Dec-11 @ 08:31 UTC
(3 hours ago)
Dec-11 @ 09:00 UTC
(2 hours ago)
Dec-11 @ 18:00 UTC
(in 7 hours)
Dec-11 @ 09:00 to Dec-11 @ 18:00
TAF EFMA 110831Z 1109/1118 03009KT 9999 BKN013
Wind Visibility Clouds
30° at 9 knots 10,000+ meters
  • Broken at 1,300' AGL
Temporary Dec-11 @ 09:00 to Dec-11 @ 18:00
TEMPO 1109/1118 BKN015
Clouds
  • Broken at 1,500' AGL
TAF EFMA 110831Z 1109/1118 03009KT 9999 BKN013 TEMPO 1109/1118 BKN015
Issued Dec-11 @ 08:31 UTC
(3 hours ago)
Valid From Dec-11 @ 09:00 UTC
(2 hours ago)
Valid To Dec-11 @ 18:00 UTC
(in 7 hours)
Dec-11 @ 09:00 - Dec-11 @ 18:00
Wind Visibility
30° at 9 knots 10,000+ meters
Clouds
  • Broken at 1,300' AGL
Temporary Dec-11 @ 09:00 - Dec-11 @ 18:00
Clouds
  • Broken at 1,500' AGL